Time;durP1;ratioP1;P1;durP2;ratioP2;P2;SDS_P1;SDS_P2;PMS_P1;PMS_P2;Temp;Humidity;BMP_temperature;BMP_pressure;BME280_temperature;BME280_humidity;BME280_pressure;Samples;Min_cycle;Max_cycle;Signal;HPM_P1;HPM_P2
2022/03/23 00:01:50;;;;;;;24.55;14.80;;;12.80;51.50;;;;;;5050245;28;20112;-68
2022/03/23 00:04:16;;;;;;;25.02;15.30;;;12.80;51.50;;;;;;5052254;28;20039;-68
2022/03/23 00:06:43;;;;;;;22.42;14.68;;;12.80;51.60;;;;;;5045025;28;20159;-68
2022/03/23 00:09:09;;;;;;;30.20;14.85;;;12.80;51.60;;;;;;5050885;28;20421;-68
2022/03/23 00:11:34;;;;;;;25.13;14.55;;;12.70;51.60;;;;;;5046130;28;20020;-68
2022/03/23 00:14:00;;;;;;;22.80;15.00;;;12.60;51.80;;;;;;5055589;28;20026;-68
2022/03/23 00:16:26;;;;;;;24.63;14.68;;;12.60;51.90;;;;;;5053158;28;20037;-68
2022/03/23 00:18:51;;;;;;;30.13;15.07;;;12.60;52.10;;;;;;5039774;28;20055;-68
2022/03/23 00:21:17;;;;;;;24.23;15.32;;;12.60;52.00;;;;;;5053524;28;20025;-68
2022/03/23 00:23:43;;;;;;;24.45;14.27;;;12.50;52.00;;;;;;5037189;28;20102;-68
2022/03/23 00:26:08;;;;;;;21.70;14.63;;;12.50;52.00;;;;;;5042162;28;20362;-68
2022/03/23 00:28:34;;;;;;;30.48;15.50;;;12.50;52.10;;;;;;5048977;28;20035;-69
2022/03/23 00:31:00;;;;;;;26.42;15.65;;;12.50;52.20;;;;;;5022923;28;20060;-68
2022/03/23 00:33:26;;;;;;;30.42;15.68;;;12.40;52.20;;;;;;5047573;28;20532;-70
2022/03/23 00:35:53;;;;;;;33.85;16.33;;;12.50;52.20;;;;;;5039202;28;20055;-69
2022/03/23 00:38:19;;;;;;;24.35;15.30;;;12.40;52.10;;;;;;5044607;28;20303;-69
2022/03/23 00:40:45;;;;;;;24.10;14.93;;;12.40;52.20;;;;;;5057739;28;20029;-68
2022/03/23 00:43:11;;;;;;;25.60;16.45;;;12.40;52.20;;;;;;5043505;28;20024;-69
2022/03/23 00:45:37;;;;;;;24.25;14.85;;;12.40;52.30;;;;;;5049222;28;20025;-68
2022/03/23 00:48:04;;;;;;;30.30;15.82;;;12.40;52.40;;;;;;5043616;28;20030;-68
2022/03/23 00:50:30;;;;;;;24.65;15.65;;;12.40;52.50;;;;;;5036633;28;20419;-68
2022/03/23 00:52:55;;;;;;;24.10;15.32;;;12.30;52.50;;;;;;5049973;28;20056;-68
2022/03/23 00:55:21;;;;;;;27.20;15.90;;;12.30;52.60;;;;;;5056563;28;20029;-68
2022/03/23 00:57:48;;;;;;;24.05;15.70;;;12.20;52.70;;;;;;5020931;28;20052;-68
2022/03/23 01:00:17;;;;;;;24.23;15.45;;;12.20;52.80;;;;;;5043769;28;20116;-68
2022/03/23 01:02:45;;;;;;;28.80;15.88;;;12.20;53.00;;;;;;5036782;28;20037;-68
2022/03/23 01:05:15;;;;;;;25.40;15.75;;;12.20;52.90;;;;;;5054118;28;20029;-68
2022/03/23 01:07:42;;;;;;;24.27;14.90;;;12.10;52.80;;;;;;5046996;28;20037;-68
2022/03/23 01:10:12;;;;;;;28.20;15.75;;;12.10;52.90;;;;;;5037324;28;20052;-68
2022/03/23 01:12:43;;;;;;;23.85;15.63;;;12.10;53.00;;;;;;5040597;28;20026;-68
2022/03/23 01:15:10;;;;;;;;;;;12.10;53.10;;;;;;5037685;28;20064;-68
2022/03/23 01:17:39;;;;;;;27.60;15.98;;;12.00;53.00;;;;;;5037341;28;19908;-68
2022/03/23 01:20:08;;;;;;;21.98;14.95;;;11.90;53.00;;;;;;5055949;28;20029;-68
2022/03/23 01:22:33;;;;;;;24.90;15.40;;;11.90;53.00;;;;;;5048048;28;20124;-68
2022/03/23 01:24:59;;;;;;;24.80;15.02;;;11.90;53.10;;;;;;5036237;28;20108;-68
2022/03/23 01:27:24;;;;;;;23.70;15.43;;;11.90;53.20;;;;;;5040315;28;20457;-68
2022/03/23 01:29:50;;;;;;;24.40;15.32;;;11.80;53.20;;;;;;5046184;28;20043;-68
2022/03/23 01:32:16;;;;;;;25.42;15.73;;;11.80;53.30;;;;;;5048140;28;20048;-68
2022/03/23 01:34:41;;;;;;;25.42;15.43;;;11.80;53.40;;;;;;5054031;28;20090;-68
2022/03/23 01:37:07;;;;;;;27.55;16.40;;;11.80;53.30;;;;;;5053560;28;20028;-68
2022/03/23 01:39:33;;;;;;;24.63;16.55;;;11.80;53.30;;;;;;5035880;28;20144;-68
2022/03/23 01:41:58;;;;;;;25.48;15.07;;;11.80;53.50;;;;;;5044737;28;20466;-69
2022/03/23 01:44:26;;;;;;;25.92;16.13;;;11.70;53.50;;;;;;5038137;28;20039;-69
2022/03/23 01:47:14;;;;;;;23.13;15.73;;;11.70;53.60;;;;;;5035931;28;20048;-69
2022/03/23 01:49:41;;;;;;;25.70;15.60;;;11.70;53.60;;;;;;5036849;28;20391;-69
2022/03/23 01:52:09;;;;;;;25.40;15.35;;;11.60;53.60;;;;;;5045371;28;20099;-69
2022/03/23 01:54:37;;;;;;;22.30;14.95;;;11.50;53.70;;;;;;5054466;28;20029;-68
2022/03/23 01:57:05;;;;;;;23.40;14.98;;;11.50;53.70;;;;;;5050618;28;20366;-68
2022/03/23 01:59:32;;;;;;;24.33;15.27;;;11.50;53.60;;;;;;5035872;28;20056;-68
2022/03/23 02:01:59;;;;;;;23.75;15.55;;;11.50;53.60;;;;;;5042713;28;20124;-68
2022/03/23 02:04:24;;;;;;;24.88;15.45;;;11.50;53.60;;;;;;5043782;28;20103;-68
2022/03/23 02:06:50;;;;;;;21.55;14.55;;;11.50;53.60;;;;;;5054470;28;20037;-68
2022/03/23 02:09:19;;;;;;;27.73;14.85;;;11.50;53.50;;;;;;5047179;28;20079;-68
2022/03/23 02:11:47;;;;;;;25.60;15.40;;;11.50;53.50;;;;;;5035469;28;20020;-68
2022/03/23 02:14:14;;;;;;;25.52;14.90;;;11.50;53.40;;;;;;5035302;28;20091;-69
2022/03/23 02:16:43;;;;;;;23.83;15.05;;;11.50;53.40;;;;;;5036285;28;20429;-69
2022/03/23 02:19:08;;;;;;;24.08;15.02;;;11.50;53.30;;;;;;5041421;28;20053;-68
2022/03/23 02:21:34;;;;;;;25.00;15.88;;;11.50;53.30;;;;;;5041552;28;20059;-69
2022/03/23 02:24:04;;;;;;;23.27;15.50;;;11.50;53.30;;;;;;5055087;28;20041;-68
2022/03/23 02:26:31;;;;;;;24.95;15.60;;;11.50;53.40;;;;;;5053140;28;20021;-68
2022/03/23 02:28:59;;;;;;;21.27;14.02;;;11.50;53.30;;;;;;5054859;28;20060;-68
2022/03/23 02:31:25;;;;;;;23.88;14.20;;;11.40;53.30;;;;;;5051705;28;20049;-68
2022/03/23 02:33:51;;;;;;;24.98;14.55;;;11.40;53.30;;;;;;5036185;28;20072;-68
2022/03/23 02:36:17;;;;;;;22.63;15.23;;;11.40;53.30;;;;;;5034681;28;20354;-68
2022/03/23 02:38:43;;;;;;;23.85;15.35;;;11.30;53.30;;;;;;5044310;28;20044;-68
2022/03/23 02:41:09;;;;;;;23.80;14.90;;;11.40;53.40;;;;;;5053374;28;20200;-69
2022/03/23 02:43:35;;;;;;;22.48;15.10;;;11.30;53.30;;;;;;5048137;28;20025;-68
2022/03/23 02:46:02;;;;;;;25.40;14.18;;;11.30;53.40;;;;;;5037346;28;20067;-69
2022/03/23 02:48:28;;;;;;;25.75;15.57;;;11.20;53.40;;;;;;5036656;28;20424;-69
2022/03/23 02:50:54;;;;;;;23.33;15.95;;;11.20;53.30;;;;;;5035690;28;20112;-69
2022/03/23 03:02:06;;;;;;;23.17;15.52;;;11.10;53.50;;;;;;5039113;28;20037;-69
2022/03/23 03:04:32;;;;;;;24.53;15.23;;;11.00;53.70;;;;;;5047431;28;20033;-69
2022/03/23 03:06:58;;;;;;;24.40;15.18;;;11.00;53.80;;;;;;5035995;28;20033;-68
2022/03/23 03:09:23;;;;;;;24.17;15.90;;;11.00;53.80;;;;;;5036070;28;20021;-69
2022/03/23 03:11:49;;;;;;;28.95;16.30;;;10.90;53.90;;;;;;5043173;28;20025;-68
2022/03/23 03:14:15;;;;;;;26.27;15.98;;;10.90;54.00;;;;;;5053271;28;20045;-69
2022/03/23 03:16:40;;;;;;;24.48;15.80;;;10.90;54.00;;;;;;5054801;28;20033;-69
2022/03/23 03:19:10;;;;;;;28.33;16.52;;;10.90;54.00;;;;;;5047790;28;20086;-68
2022/03/23 03:21:36;;;;;;;27.08;15.35;;;10.90;53.90;;;;;;5037131;28;20029;-68
2022/03/23 03:24:02;;;;;;;25.02;14.90;;;10.80;53.80;;;;;;5047509;28;20030;-69
2022/03/23 03:26:30;;;;;;;25.40;15.25;;;10.80;53.90;;;;;;5044908;28;20033;-69
2022/03/23 03:28:56;;;;;;;28.80;15.75;;;10.80;53.90;;;;;;5050725;28;20037;-69
2022/03/23 03:31:22;;;;;;;24.20;15.15;;;10.70;53.90;;;;;;5034824;28;20045;-69
2022/03/23 03:33:48;;;;;;;26.50;15.57;;;10.70;54.00;;;;;;5040211;28;20071;-68
2022/03/23 03:36:15;;;;;;;24.33;14.57;;;10.70;54.00;;;;;;5045066;28;20032;-68
2022/03/23 03:38:41;;;;;;;27.27;16.50;;;10.70;54.10;;;;;;5041102;28;20036;-69
2022/03/23 03:41:08;;;;;;;24.08;16.05;;;10.70;54.10;;;;;;5035882;28;20029;-68
2022/03/23 03:43:34;;;;;;;23.33;14.35;;;10.70;54.10;;;;;;5033317;28;20025;-68
2022/03/23 03:46:00;;;;;;;24.77;16.77;;;10.60;54.10;;;;;;5041177;28;20041;-68
2022/03/23 03:48:25;;;;;;;27.13;16.25;;;10.60;54.10;;;;;;5052179;28;20086;-68
2022/03/23 03:50:51;;;;;;;28.33;16.27;;;10.60;54.10;;;;;;5047462;28;20025;-68
2022/03/23 03:53:17;;;;;;;27.35;16.63;;;10.50;54.20;;;;;;5049709;28;20044;-69
2022/03/23 03:55:42;;;;;;;22.58;15.45;;;10.50;54.20;;;;;;5040731;28;20407;-69
2022/03/23 03:58:08;;;;;;;24.98;15.95;;;10.50;54.20;;;;;;5043953;28;20031;-68
2022/03/23 04:00:35;;;;;;;24.65;15.45;;;10.50;54.30;;;;;;5044454;28;20116;-68
2022/03/23 04:03:04;;;;;;;26.98;17.17;;;10.40;54.20;;;;;;5032580;28;20034;-69
2022/03/23 04:05:30;;;;;;;24.95;15.45;;;10.40;54.20;;;;;;5032828;28;20037;-68
2022/03/23 04:07:56;;;;;;;20.95;14.75;;;10.40;54.30;;;;;;5039848;28;20033;-68
2022/03/23 04:10:25;;;;;;;25.27;15.60;;;10.40;54.40;;;;;;5039420;28;20043;-68
2022/03/23 04:12:52;;;;;;;24.20;15.23;;;10.40;54.50;;;;;;5045760;28;20028;-69
2022/03/23 04:15:20;;;;;;;29.92;16.23;;;10.30;54.50;;;;;;5052136;28;20103;-68
2022/03/23 04:17:46;;;;;;;25.45;15.68;;;10.30;54.60;;;;;;5047752;28;20446;-69
2022/03/23 04:20:12;;;;;;;25.38;16.02;;;10.30;54.60;;;;;;5051976;28;20083;-68
2022/03/23 04:22:38;;;;;;;27.67;16.80;;;10.30;54.60;;;;;;5041644;28;20362;-69
2022/03/23 04:25:07;;;;;;;23.73;15.88;;;10.30;54.70;;;;;;5038843;28;20044;-69
2022/03/23 04:27:34;;;;;;;23.95;16.48;;;10.20;54.80;;;;;;5051247;28;20021;-68
2022/03/23 04:30:00;;;;;;;28.17;16.17;;;10.20;54.80;;;;;;5051911;28;20029;-68
2022/03/23 04:32:26;;;;;;;23.38;15.75;;;10.20;55.00;;;;;;5043038;28;20080;-68
2022/03/23 04:34:51;;;;;;;24.98;15.70;;;10.20;55.00;;;;;;5032515;28;20067;-68
2022/03/23 04:37:17;;;;;;;23.13;15.68;;;10.10;54.90;;;;;;5033336;28;20040;-68
2022/03/23 04:39:42;;;;;;;28.05;15.65;;;10.10;54.90;;;;;;5033285;28;20383;-68
2022/03/23 04:42:08;;;;;;;25.70;16.13;;;10.10;54.90;;;;;;5049060;28;20032;-68
2022/03/23 04:44:35;;;;;;;27.45;15.73;;;10.10;55.00;;;;;;5051269;28;20075;-68
2022/03/23 04:47:00;;;;;;;22.98;15.77;;;10.10;55.00;;;;;;5049977;28;20112;-68
2022/03/23 04:49:26;;;;;;;23.08;15.20;;;10.00;55.10;;;;;;5034137;28;20107;-68
2022/03/23 04:51:52;;;;;;;24.08;15.90;;;10.00;55.20;;;;;;5032326;28;20025;-68
2022/03/23 04:54:17;;;;;;;26.20;15.68;;;10.00;55.80;;;;;;5051583;28;20057;-68
2022/03/23 04:56:43;;;;;;;22.27;15.75;;;10.00;55.30;;;;;;5049116;28;20017;-68
2022/03/23 04:59:09;;;;;;;26.98;16.88;;;10.00;55.20;;;;;;5055433;28;20482;-69
2022/03/23 05:01:35;;;;;;;27.75;17.58;;;9.90;55.20;;;;;;5043793;28;20028;-69
2022/03/23 05:04:00;;;;;;;25.63;16.17;;;9.90;55.20;;;;;;5042458;28;20515;-68
2022/03/23 05:06:26;;;;;;;24.88;16.67;;;9.90;55.20;;;;;;5052548;28;20029;-68
2022/03/23 05:08:51;;;;;;;26.65;16.33;;;9.90;55.20;;;;;;5037147;28;20033;-68
2022/03/23 05:11:17;;;;;;;25.02;16.35;;;9.90;55.20;;;;;;5021114;28;20029;-68
2022/03/23 05:13:43;;;;;;;24.98;15.82;;;9.90;55.30;;;;;;5037441;28;20050;-68
2022/03/23 05:16:08;;;;;;;27.70;17.05;;;9.90;55.30;;;;;;5037379;28;20018;-69
2022/03/23 05:18:34;;;;;;;28.10;16.45;;;9.80;55.90;;;;;;5036270;28;20526;-68
2022/03/23 05:20:59;;;;;;;24.90;16.13;;;9.80;55.30;;;;;;5041145;28;20033;-68
2022/03/23 05:23:25;;;;;;;27.60;16.58;;;9.80;55.30;;;;;;5038332;28;20115;-68
2022/03/23 05:25:50;;;;;;;24.30;15.48;;;9.80;55.40;;;;;;5038449;28;20026;-68
2022/03/23 05:28:16;;;;;;;23.70;15.48;;;9.80;55.40;;;;;;5036072;28;20063;-68
2022/03/23 05:30:42;;;;;;;27.20;16.65;;;9.80;55.40;;;;;;5048300;28;20490;-68
2022/03/23 05:33:07;;;;;;;26.38;16.60;;;9.80;55.40;;;;;;5049124;28;20030;-68
2022/03/23 05:35:33;;;;;;;25.88;17.02;;;9.80;55.50;;;;;;5050601;28;20338;-68
2022/03/23 05:37:58;;;;;;;27.25;15.68;;;9.70;55.50;;;;;;5042475;28;20339;-69
2022/03/23 05:40:24;;;;;;;30.83;17.55;;;9.70;55.50;;;;;;5037908;28;20029;-69
2022/03/23 05:42:50;;;;;;;28.05;16.90;;;9.70;55.60;;;;;;5054042;28;20032;-68
2022/03/23 05:45:16;;;;;;;27.63;15.85;;;9.70;55.60;;;;;;5054983;28;20032;-69
2022/03/23 05:47:43;;;;;;;28.50;16.95;;;9.70;55.60;;;;;;5045533;28;20035;-69
2022/03/23 05:50:10;;;;;;;28.63;16.63;;;9.70;55.60;;;;;;5052612;28;20025;-69
2022/03/23 05:52:37;;;;;;;29.30;16.23;;;9.70;55.60;;;;;;5039615;28;20488;-69
2022/03/23 05:55:05;;;;;;;23.98;15.95;;;9.70;55.50;;;;;;5036609;28;20033;-67
2022/03/23 05:57:31;;;;;;;23.25;15.05;;;9.70;55.60;;;;;;5037628;28;20033;-69
2022/03/23 05:59:56;;;;;;;24.85;15.70;;;9.80;55.50;;;;;;5038090;28;20033;-68
2022/03/23 06:02:22;;;;;;;24.55;16.27;;;9.80;55.50;;;;;;5027273;28;20043;-68
2022/03/23 06:04:48;;;;;;;26.02;16.92;;;9.70;55.40;;;;;;5048353;28;20049;-68
2022/03/23 06:07:13;;;;;;;23.88;15.68;;;9.80;55.50;;;;;;5046029;28;20396;-68
2022/03/23 06:09:39;;;;;;;26.27;16.23;;;9.80;55.50;;;;;;5054380;28;20025;-68
2022/03/23 06:12:05;;;;;;;26.25;16.45;;;9.80;55.50;;;;;;5054563;28;20025;-68
2022/03/23 06:14:32;;;;;;;28.20;17.02;;;9.80;55.60;;;;;;5051495;28;20427;-68
2022/03/23 06:16:58;;;;;;;30.17;17.20;;;9.80;55.50;;;;;;5038397;28;20021;-68
2022/03/23 06:19:23;;;;;;;24.63;16.25;;;9.80;55.50;;;;;;5043759;28;20236;-68
2022/03/23 06:21:49;;;;;;;29.02;17.88;;;9.80;55.50;;;;;;5040253;28;20370;-68
2022/03/23 06:24:15;;;;;;;26.27;16.83;;;9.80;55.60;;;;;;5040988;28;20036;-68
2022/03/23 06:26:40;;;;;;;26.27;17.17;;;9.90;55.70;;;;;;5036103;28;20479;-68
2022/03/23 06:29:07;;;;;;;25.02;16.65;;;9.90;55.70;;;;;;5035981;28;20060;-68
2022/03/23 06:31:32;;;;;;;30.17;16.75;;;10.00;55.60;;;;;;5048183;28;20069;-68
2022/03/23 06:33:59;;;;;;;26.80;17.67;;;10.00;55.50;;;;;;5037432;28;20407;-68
2022/03/23 06:36:25;;;;;;;25.90;16.52;;;10.10;55.50;;;;;;5035696;28;20025;-68
2022/03/23 06:38:51;;;;;;;28.05;18.30;;;10.20;55.50;;;;;;5049924;28;20095;-68
2022/03/23 06:41:17;;;;;;;28.90;17.95;;;10.30;55.40;;;;;;5038431;28;20025;-68
2022/03/23 06:43:43;;;;;;;25.83;17.02;;;10.40;55.10;;;;;;5052418;28;20040;-67
2022/03/23 06:46:09;;;;;;;24.40;15.98;;;10.60;54.80;;;;;;5054397;28;20025;-67
2022/03/23 06:48:35;;;;;;;30.60;18.52;;;10.80;54.30;;;;;;5043313;28;20037;-67
2022/03/23 06:51:01;;;;;;;25.52;15.45;;;11.00;53.90;;;;;;5036752;28;20033;-67
2022/03/23 06:53:27;;;;;;;27.75;15.68;;;11.10;53.20;;;;;;5047424;28;20343;-68
2022/03/23 06:55:52;;;;;;;29.10;17.40;;;11.40;52.50;;;;;;5054871;28;20029;-68
2022/03/23 06:58:18;;;;;;;28.50;17.20;;;11.70;51.90;;;;;;5048749;28;20033;-68
2022/03/23 07:00:44;;;;;;;27.92;17.00;;;12.00;51.40;;;;;;5049812;28;20094;-67
2022/03/23 07:03:11;;;;;;;23.98;16.55;;;12.10;51.10;;;;;;5044665;28;20083;-67
2022/03/23 07:05:36;;;;;;;25.33;16.25;;;12.30;50.80;;;;;;5036219;28;20029;-67
2022/03/23 07:10:48;;;;;;;24.65;16.23;;;12.60;50.10;;;;;;5037198;28;20032;-68
2022/03/23 07:13:14;;;;;;;25.48;16.40;;;12.70;49.60;;;;;;5037088;28;20091;-67
2022/03/23 07:15:42;;;;;;;25.75;17.30;;;12.80;49.00;;;;;;5046872;28;20029;-67
2022/03/23 07:18:09;;;;;;;30.52;15.75;;;12.90;48.80;;;;;;5045675;28;20025;-67
2022/03/23 07:20:35;;;;;;;26.23;15.07;;;13.00;48.60;;;;;;5053300;28;20040;-67
2022/03/23 07:23:00;;;;;;;24.65;16.00;;;13.10;48.40;;;;;;5043025;28;20047;-67
2022/03/23 07:25:26;;;;;;;28.30;15.75;;;13.10;48.10;;;;;;5040720;28;20057;-67
2022/03/23 07:27:52;;;;;;;26.13;16.33;;;13.20;47.80;;;;;;5050678;28;20029;-67
2022/03/23 07:30:18;;;;;;;25.55;15.57;;;13.30;47.60;;;;;;5049788;28;20013;-67
2022/03/23 07:32:43;;;;;;;25.33;16.60;;;13.40;47.30;;;;;;5039595;28;20040;-68
2022/03/23 07:35:09;;;;;;;28.02;17.33;;;13.40;47.10;;;;;;5034071;28;20028;-68
2022/03/23 07:37:35;;;;;;;25.23;15.90;;;13.50;46.90;;;;;;5033517;28;20468;-67
2022/03/23 07:40:00;;;;;;;29.33;16.73;;;13.60;46.60;;;;;;5048379;28;20085;-67
2022/03/23 07:42:26;;;;;;;25.08;16.27;;;13.80;46.60;;;;;;5049053;28;20034;-67
2022/03/23 07:44:52;;;;;;;24.58;16.98;;;13.90;46.50;;;;;;5037636;28;20029;-66
2022/03/23 07:47:18;;;;;;;26.15;16.20;;;14.00;46.20;;;;;;5034152;28;20028;-66
2022/03/23 07:49:43;;;;;;;23.00;15.25;;;14.10;45.90;;;;;;5036853;28;20025;-65
2022/03/23 07:52:09;;;;;;;23.50;14.35;;;14.30;45.70;;;;;;5042431;28;20133;-66
2022/03/23 07:54:35;;;;;;;23.27;15.90;;;14.40;45.40;;;;;;5033550;28;20114;-66
2022/03/23 07:57:02;;;;;;;23.20;16.05;;;14.60;45.20;;;;;;5066545;28;20078;-66
2022/03/23 07:59:28;;;;;;;24.13;15.90;;;14.80;44.90;;;;;;5054487;28;20064;-66
2022/03/23 08:01:54;;;;;;;25.65;16.15;;;15.00;44.50;;;;;;5038134;28;20052;-66
2022/03/23 08:04:20;;;;;;;24.75;15.88;;;15.20;44.20;;;;;;5054512;28;20133;-66
2022/03/23 08:06:45;;;;;;;24.48;15.77;;;15.30;43.80;;;;;;5036400;28;20033;-66
2022/03/23 08:09:11;;;;;;;27.90;16.92;;;15.50;43.60;;;;;;5052754;28;20047;-65
2022/03/23 08:11:37;;;;;;;25.83;16.48;;;15.60;43.30;;;;;;5051637;28;20021;-65
2022/03/23 08:14:03;;;;;;;26.13;16.60;;;15.80;43.10;;;;;;5041267;28;20026;-65
2022/03/23 08:16:29;;;;;;;22.55;14.77;;;16.00;43.00;;;;;;5032205;28;20029;-65
2022/03/23 08:18:55;;;;;;;27.63;17.15;;;16.20;42.90;;;;;;5032344;28;20048;-65
2022/03/23 08:21:22;;;;;;;24.17;15.75;;;16.40;42.70;;;;;;5035197;28;20052;-65
2022/03/23 08:23:49;;;;;;;21.10;14.70;;;16.60;42.50;;;;;;5037428;28;20112;-65
2022/03/23 08:26:16;;;;;;;25.52;16.00;;;16.80;42.10;;;;;;5034782;28;20034;-66
2022/03/23 08:28:44;;;;;;;28.20;16.55;;;17.00;41.70;;;;;;5016515;28;20454;-67
2022/03/23 08:31:10;;;;;;;23.77;15.65;;;17.20;41.40;;;;;;5033324;28;20045;-67
2022/03/23 08:33:37;;;;;;;25.02;16.42;;;17.30;41.20;;;;;;5041261;28;20079;-67
2022/03/23 08:36:05;;;;;;;25.60;15.52;;;17.50;41.00;;;;;;5039771;28;20029;-67
2022/03/23 08:38:30;;;;;;;26.23;16.45;;;17.60;40.70;;;;;;5056982;28;20124;-66
2022/03/23 08:40:56;;;;;;;23.92;15.77;;;17.80;40.60;;;;;;5042987;28;20080;-67
2022/03/23 08:43:22;;;;;;;25.17;16.33;;;17.90;40.30;;;;;;5051192;28;20036;-66
2022/03/23 08:45:48;;;;;;;23.95;15.38;;;18.10;39.90;;;;;;5055553;28;20029;-66
2022/03/23 08:48:14;;;;;;;25.50;15.80;;;18.20;39.80;;;;;;5046618;28;20040;-66
2022/03/23 08:50:41;;;;;;;24.80;15.77;;;18.30;39.70;;;;;;5048874;28;20509;-66
2022/03/23 08:53:07;;;;;;;25.63;16.35;;;18.40;39.30;;;;;;5047872;28;20047;-66
2022/03/23 08:55:32;;;;;;;24.63;15.88;;;18.50;39.00;;;;;;5057005;28;20037;-66
2022/03/23 08:57:58;;;;;;;34.95;17.45;;;18.50;38.80;;;;;;5068321;28;20047;-67
2022/03/23 09:00:24;;;;;;;23.98;16.40;;;18.60;38.80;;;;;;5071026;28;20033;-66
2022/03/23 09:02:49;;;;;;;31.10;17.08;;;18.70;38.70;;;;;;5037267;28;20040;-66
2022/03/23 09:05:16;;;;;;;25.70;16.05;;;18.90;38.70;;;;;;5019861;28;20044;-67
2022/03/23 09:07:45;;;;;;;23.73;16.52;;;18.90;38.60;;;;;;5036197;28;20076;-67
2022/03/23 09:10:13;;;;;;;25.83;16.98;;;19.00;38.40;;;;;;5067670;28;20044;-66
2022/03/23 09:12:39;;;;;;;25.13;16.98;;;19.10;38.30;;;;;;5049450;28;20060;-66
2022/03/23 09:15:07;;;;;;;26.55;17.85;;;19.20;38.10;;;;;;5048657;28;20033;-67
2022/03/23 09:17:33;;;;;;;25.65;16.35;;;19.30;37.90;;;;;;5038090;28;20504;-67
2022/03/23 09:20:00;;;;;;;25.55;16.80;;;19.40;37.80;;;;;;5044310;28;20056;-67
2022/03/23 09:22:27;;;;;;;27.60;18.05;;;19.50;37.70;;;;;;5041373;28;20044;-66
2022/03/23 09:24:53;;;;;;;25.60;17.30;;;19.60;37.50;;;;;;5036951;28;20025;-66
2022/03/23 09:27:19;;;;;;;24.98;16.95;;;19.70;37.50;;;;;;5037004;28;20037;-67
2022/03/23 09:29:45;;;;;;;24.40;16.10;;;19.70;37.30;;;;;;5047234;28;20439;-67
2022/03/23 09:32:12;;;;;;;25.05;16.20;;;19.70;37.00;;;;;;5037204;28;20095;-67
2022/03/23 09:34:39;;;;;;;24.65;16.67;;;19.80;36.90;;;;;;5040557;28;20026;-66
2022/03/23 09:39:50;;;;;;;23.30;16.58;;;20.00;36.70;;;;;;5039326;28;20037;-66
2022/03/23 09:42:18;;;;;;;24.77;16.98;;;20.10;36.60;;;;;;5047382;28;20025;-67
2022/03/23 09:44:45;;;;;;;25.80;16.38;;;20.20;36.40;;;;;;5043758;28;20022;-67
2022/03/23 09:47:11;;;;;;;24.40;16.75;;;20.30;36.40;;;;;;5046761;28;20043;-67
2022/03/23 09:49:38;;;;;;;22.42;16.27;;;20.30;36.10;;;;;;5042165;28;20029;-67
2022/03/23 09:52:05;;;;;;;24.83;16.00;;;20.40;35.90;;;;;;5044501;28;20021;-67
2022/03/23 09:54:31;;;;;;;25.77;15.70;;;20.40;35.70;;;;;;5035563;28;20031;-67
2022/03/23 09:56:56;;;;;;;24.23;16.45;;;20.50;35.70;;;;;;5039731;28;20024;-67
2022/03/23 09:59:22;;;;;;;27.65;18.25;;;20.60;35.80;;;;;;5037564;28;20084;-67
2022/03/23 10:01:49;;;;;;;25.45;17.20;;;20.70;35.60;;;;;;5041281;28;20119;-66
2022/03/23 10:04:17;;;;;;;25.75;17.35;;;20.70;35.30;;;;;;5038970;28;20369;-67
2022/03/23 10:07:21;;;;;;;31.20;16.95;;;20.80;35.30;;;;;;5038117;28;20500;-66
2022/03/23 10:10:22;;;;;;;24.42;16.50;;;20.90;34.60;;;;;;5034820;28;20232;-66
2022/03/23 10:13:07;;;;;;;;;;;20.90;34.60;;;;;;5032128;28;20394;-66
2022/03/23 10:16:06;;;;;;;21.98;13.77;;;21.00;35.10;;;;;;5036415;28;19943;-66
2022/03/23 10:18:50;;;;;;;22.42;15.38;;;21.00;34.40;;;;;;5042961;28;20104;-66
2022/03/23 10:21:16;;;;;;;27.80;16.23;;;21.00;34.20;;;;;;5047463;28;20121;-66
2022/03/23 10:24:11;;;;;;;23.60;15.90;;;21.00;34.30;;;;;;5046018;28;20044;-66
2022/03/23 10:26:38;;;;;;;24.50;16.80;;;21.10;33.70;;;;;;5040655;28;20028;-66
2022/03/23 10:29:10;;;;;;;23.80;16.40;;;21.10;33.60;;;;;;5041841;28;20033;-66
2022/03/23 10:31:36;;;;;;;22.73;15.57;;;21.20;33.40;;;;;;5055667;28;20475;-66
2022/03/23 10:34:08;;;;;;;26.42;16.75;;;21.20;33.10;;;;;;5033477;28;20057;-66
2022/03/23 10:36:40;;;;;;;26.85;16.50;;;21.20;32.80;;;;;;5041574;28;20037;-66
2022/03/23 10:39:11;;;;;;;21.15;14.68;;;21.30;32.40;;;;;;5039170;28;20049;-66
2022/03/23 10:41:37;;;;;;;24.10;14.98;;;21.30;32.40;;;;;;5059701;28;20029;-66
2022/03/23 10:44:03;;;;;;;25.83;16.00;;;21.40;32.30;;;;;;5039329;28;20377;-66
2022/03/23 10:46:29;;;;;;;22.67;15.45;;;21.40;32.10;;;;;;5040656;28;20030;-66
2022/03/23 10:49:02;;;;;;;23.80;15.75;;;21.50;32.10;;;;;;5043962;28;20087;-66
2022/03/23 10:51:33;;;;;;;24.65;15.13;;;21.50;32.00;;;;;;5041560;28;20060;-66
2022/03/23 10:54:12;;;;;;;20.55;14.90;;;21.60;31.90;;;;;;5037383;28;20029;-67
2022/03/23 10:56:38;;;;;;;22.60;14.90;;;21.60;31.90;;;;;;5027663;28;20017;-68
2022/03/23 10:59:22;;;;;;;24.25;17.05;;;21.70;32.00;;;;;;5041156;28;20025;-67
2022/03/23 11:02:03;;;;;;;23.17;15.57;;;21.70;32.00;;;;;;5040875;28;20037;-66
2022/03/23 11:04:30;;;;;;;22.67;15.25;;;21.80;32.20;;;;;;5040486;28;20033;-67
2022/03/23 11:07:01;;;;;;;24.20;16.42;;;21.70;32.60;;;;;;5042034;28;20025;-67
2022/03/23 11:18:07;;;;;;;26.30;17.10;;;21.70;32.90;;;;;;5040346;28;20029;-67
2022/03/23 11:20:40;;;;;;;24.45;15.60;;;21.70;33.10;;;;;;5033986;28;20021;-67
2022/03/23 11:23:19;;;;;;;27.15;15.57;;;21.70;33.20;;;;;;5038035;28;20039;-67
2022/03/23 11:25:46;;;;;;;23.40;15.65;;;21.70;33.00;;;;;;5038601;28;20036;-67
2022/03/23 11:28:15;;;;;;;23.67;16.27;;;21.70;33.00;;;;;;5039287;28;20079;-67
2022/03/23 11:30:45;;;;;;;24.75;15.95;;;21.80;33.00;;;;;;5036224;28;20128;-67
2022/03/23 11:33:14;;;;;;;22.75;15.57;;;21.80;33.10;;;;;;5021959;28;20112;-67
2022/03/23 11:35:45;;;;;;;23.08;15.55;;;21.80;33.00;;;;;;5038729;28;20033;-68
2022/03/23 11:38:12;;;;;;;;;;;21.80;33.00;;;;;;5035445;28;20034;-68
2022/03/23 11:40:42;;;;;;;21.40;13.63;;;21.90;33.20;;;;;;5047747;28;19909;-68
2022/03/23 11:43:10;;;;;;;24.60;15.82;;;21.80;33.10;;;;;;5054820;28;20434;-68
2022/03/23 11:45:38;;;;;;;20.73;14.35;;;21.70;33.10;;;;;;5052818;28;20067;-68
2022/03/23 11:48:32;;;;;;;24.83;16.08;;;21.70;33.30;;;;;;5036748;28;20029;-68
2022/03/23 11:51:15;;;;;;;22.00;13.50;;;21.80;33.10;;;;;;5035382;28;20040;-67
2022/03/23 11:54:00;;;;;;;24.05;14.88;;;21.80;32.90;;;;;;5042374;28;20055;-66
2022/03/23 11:56:35;;;;;;;19.65;13.73;;;21.80;32.70;;;;;;5040743;28;20095;-66
2022/03/23 11:59:27;;;;;;;23.23;13.95;;;21.80;32.80;;;;;;5034435;28;20358;-67
2022/03/23 12:01:53;;;;;;;;;;;21.90;32.50;;;;;;5034977;28;20040;-66
2022/03/23 12:04:20;;;;;;;17.75;11.50;;;21.80;32.80;;;;;;5034551;28;19909;-66
2022/03/23 12:06:47;;;;;;;19.38;13.57;;;21.80;32.60;;;;;;5033439;28;20339;-66
2022/03/23 12:09:37;;;;;;;20.50;13.23;;;21.70;32.40;;;;;;5033174;28;20065;-66
2022/03/23 12:12:27;;;;;;;17.27;11.50;;;21.70;32.00;;;;;;5028207;28;20232;-66
2022/03/23 12:15:25;;;;;;;18.13;10.80;;;21.70;31.40;;;;;;5035222;28;20120;-66
2022/03/23 12:17:56;;;;;;;17.85;9.60;;;21.70;31.80;;;;;;5054355;28;20043;-66
2022/03/23 12:20:33;;;;;;;16.75;10.60;;;21.70;30.50;;;;;;5050203;28;20091;-67
2022/03/23 12:23:11;;;;;;;17.70;11.27;;;21.60;30.30;;;;;;5046272;28;20021;-67
2022/03/23 12:26:05;;;;;;;18.08;11.45;;;21.50;30.40;;;;;;5035791;28;20086;-66
2022/03/23 12:28:50;;;;;;;19.33;11.38;;;21.50;30.30;;;;;;5052199;28;20040;-66
2022/03/23 12:31:17;;;;;;;20.55;11.85;;;21.50;30.50;;;;;;5036661;28;20458;-66
2022/03/23 12:34:12;;;;;;;18.85;11.00;;;21.50;30.70;;;;;;5042799;28;20021;-66
2022/03/23 12:36:56;;;;;;;20.25;11.10;;;21.50;30.40;;;;;;5033111;28;20025;-66
2022/03/23 12:39:36;;;;;;;19.08;10.43;;;21.50;30.50;;;;;;5033432;28;20082;-66
2022/03/23 12:42:15;;;;;;;17.15;10.13;;;21.40;30.30;;;;;;5033356;28;20033;-67
2022/03/23 12:44:59;;;;;;;21.55;11.20;;;21.40;30.30;;;;;;5035497;28;20115;-66
2022/03/23 12:47:30;;;;;;;22.27;13.05;;;21.30;30.70;;;;;;5050503;28;20033;-66
2022/03/23 12:58:42;;;;;;;20.60;10.27;;;21.10;30.90;;;;;;5032465;28;20115;-66
2022/03/23 13:01:14;;;;;;;16.95;10.25;;;21.00;31.70;;;;;;5031426;28;20041;-66
2022/03/23 13:03:42;;;;;;;17.15;9.35;;;21.00;30.80;;;;;;4982462;28;20038;-66
2022/03/23 13:06:13;;;;;;;15.55;9.07;;;21.00;30.60;;;;;;4996270;28;20065;-66
2022/03/23 13:08:49;;;;;;;29.83;10.55;;;20.90;30.50;;;;;;5012667;28;20042;-66